createdAt,value
2017-12-21T00:00:39.724Z,99994.20
2017-12-21T00:03:08.058Z,99997.31
2017-12-21T00:05:36.364Z,99999.47
2017-12-21T00:08:04.746Z,99992.87
2017-12-21T00:10:33.600Z,99993.08
2017-12-21T00:13:01.959Z,99989.89
2017-12-21T00:15:30.710Z,99978.63
2017-12-21T00:17:59.104Z,99969.26
2017-12-21T00:20:28.029Z,99975.42
2017-12-21T00:22:56.421Z,99980.92
2017-12-21T00:25:24.939Z,99988.63
2017-12-21T00:27:53.296Z,99983.95
2017-12-21T00:30:21.772Z,99967.77
2017-12-21T00:32:50.105Z,99981.47
2017-12-21T00:35:19.185Z,99985.70
2017-12-21T00:37:47.665Z,99991.16
2017-12-21T00:40:16.112Z,100002.41
2017-12-21T00:42:44.440Z,100004.02
2017-12-21T00:45:13.579Z,100008.79
2017-12-21T00:47:41.892Z,100007.25
2017-12-21T00:50:10.261Z,100015.22
2017-12-21T00:52:38.624Z,100013.63
2017-12-21T00:55:07.000Z,100011.08
2017-12-21T00:57:35.331Z,100014.06
2017-12-21T01:00:04.463Z,100009.47
2017-12-21T01:02:32.810Z,100005.34
2017-12-21T01:05:01.112Z,100008.27
2017-12-21T01:07:29.492Z,100008.63
2017-12-21T01:09:57.800Z,100015.63
2017-12-21T01:12:26.135Z,100017.30
2017-12-21T01:14:54.775Z,100017.44
2017-12-21T01:17:23.216Z,100023.17
2017-12-21T01:19:51.526Z,100021.73
2017-12-21T01:22:19.924Z,100016.78
2017-12-21T01:24:48.272Z,100025.47
2017-12-21T01:27:16.589Z,100027.95
2017-12-21T01:29:44.948Z,100027.90
2017-12-21T01:32:13.255Z,100021.85
2017-12-21T01:34:41.752Z,100018.48
2017-12-21T01:37:10.485Z,100006.72
2017-12-21T01:39:38.796Z,100005.98
2017-12-21T01:42:07.143Z,99996.93
2017-12-21T01:44:35.814Z,99997.10
2017-12-21T01:47:04.129Z,99993.14
2017-12-21T01:49:33.164Z,99999.36
2017-12-21T01:52:01.623Z,99995.34
2017-12-21T01:54:29.942Z,99993.22
2017-12-21T01:56:58.541Z,99980.59
2017-12-21T01:59:27.139Z,99982.53
2017-12-21T02:01:55.468Z,99981.65
2017-12-21T02:04:23.784Z,99975.63
2017-12-21T02:06:52.845Z,99973.64
2017-12-21T02:09:21.836Z,99978.29
2017-12-21T02:11:50.144Z,99984.06
2017-12-21T02:14:18.520Z,99988.61
2017-12-21T02:16:47.515Z,99989.77
2017-12-21T02:19:15.836Z,99990.67
2017-12-21T02:21:47.321Z,99994.27
2017-12-21T02:24:15.784Z,100010.77
2017-12-21T02:26:44.102Z,100010.41
2017-12-21T02:29:13.035Z,100009.67
2017-12-21T02:31:41.833Z,100011.44
2017-12-21T02:34:10.488Z,100008.80
2017-12-21T02:36:38.964Z,100006.14
2017-12-21T02:39:07.289Z,100009.59
2017-12-21T02:41:35.616Z,100008.47
2017-12-21T02:44:04.084Z,100016.61
2017-12-21T02:46:32.576Z,100017.02
2017-12-21T02:49:01.141Z,100017.89
2017-12-21T02:51:29.464Z,100019.06
2017-12-21T02:53:57.813Z,100022.27
2017-12-21T02:56:27.016Z,100023.66
2017-12-21T02:58:55.359Z,100017.09
2017-12-21T03:01:23.685Z,100020.67
2017-12-21T03:03:53.281Z,100011.70
2017-12-21T03:06:21.618Z,100011.77
2017-12-21T03:08:49.952Z,100008.59
2017-12-21T03:11:19.628Z,100009.73
2017-12-21T03:13:48.649Z,99998.47
2017-12-21T03:16:17.012Z,99993.30
2017-12-21T03:18:46.126Z,99990.92
2017-12-21T03:21:14.913Z,99993.36
2017-12-21T03:23:44.265Z,100005.09
2017-12-21T03:26:13.160Z,100006.98
2017-12-21T03:28:41.572Z,100000.30
2017-12-21T03:31:10.169Z,100003.59
2017-12-21T03:33:39.357Z,100002.68
2017-12-21T03:36:08.402Z,99998.61
2017-12-21T03:38:36.711Z,99999.98
2017-12-21T03:41:05.096Z,99998.27
2017-12-21T03:43:33.472Z,99996.25
2017-12-21T03:46:01.824Z,99996.71
2017-12-21T03:48:30.321Z,99989.58
2017-12-21T03:50:58.828Z,99991.88
2017-12-21T03:53:27.152Z,99994.39
2017-12-21T03:55:55.599Z,99994.11
2017-12-21T03:58:24.684Z,99999.55
2017-12-21T04:00:53.004Z,100005.73
2017-12-21T04:03:21.923Z,99997.63
2017-12-21T04:05:50.229Z,99995.05
2017-12-21T04:08:18.536Z,100003.47
2017-12-21T04:10:47.041Z,99999.19
2017-12-21T04:13:15.347Z,100002.09
2017-12-21T04:15:43.702Z,99997.25
2017-12-21T04:18:12.082Z,99991.41
2017-12-21T04:20:40.402Z,99984.84
2017-12-21T04:23:08.768Z,99987.00
2017-12-21T04:25:37.112Z,99995.08
2017-12-21T04:28:05.736Z,99995.00
2017-12-21T04:30:34.185Z,99997.27
2017-12-21T04:33:02.507Z,100003.02
2017-12-21T04:35:30.839Z,99997.92
2017-12-21T04:37:59.817Z,99996.11
2017-12-21T04:40:28.381Z,99996.14
2017-12-21T04:42:56.754Z,100003.31
2017-12-21T04:45:26.040Z,100004.03
2017-12-21T04:47:55.120Z,100017.07
2017-12-21T04:50:24.216Z,100028.75
2017-12-21T04:52:53.024Z,100019.13
2017-12-21T04:55:21.344Z,100015.38
2017-12-21T04:57:49.653Z,100007.45
2017-12-21T05:00:18.016Z,100009.26
2017-12-21T05:02:46.945Z,100019.05
2017-12-21T05:05:15.284Z,100017.84
2017-12-21T05:07:43.672Z,100012.30
2017-12-21T05:10:12.694Z,100018.38
2017-12-21T05:12:42.220Z,100019.02
2017-12-21T05:15:10.783Z,100022.05
2017-12-21T05:17:39.111Z,100027.81
2017-12-21T05:20:07.450Z,100023.11
2017-12-21T05:22:36.571Z,100015.83
2017-12-21T05:25:04.892Z,100012.63
2017-12-21T05:27:33.214Z,100015.59
2017-12-21T05:30:01.576Z,100023.62
2017-12-21T05:32:30.652Z,100023.56
2017-12-21T05:34:58.968Z,100028.47
2017-12-21T05:37:27.345Z,100016.90
2017-12-21T05:39:55.948Z,100019.73
2017-12-21T05:42:24.335Z,100026.91
2017-12-21T05:44:52.820Z,100018.27
2017-12-21T05:47:21.708Z,100014.44
2017-12-21T05:49:50.139Z,100014.94
2017-12-21T05:52:18.545Z,100015.13
2017-12-21T05:54:46.855Z,100007.80
2017-12-21T05:57:15.176Z,100001.25
2017-12-21T05:59:43.552Z,100003.08
2017-12-21T06:02:12.672Z,100006.09
2017-12-21T06:04:41.051Z,100009.84
2017-12-21T06:07:09.384Z,100013.31
2017-12-21T06:09:38.247Z,100014.44
2017-12-21T06:12:06.663Z,100015.97
2017-12-21T06:14:35.576Z,100018.73
2017-12-21T06:19:38.057Z,100021.45
2017-12-21T06:22:07.011Z,100019.33
2017-12-21T06:24:35.334Z,100021.20
2017-12-21T06:27:04.508Z,100020.77
2017-12-21T06:29:34.198Z,100027.11
2017-12-21T06:32:02.724Z,100027.50
2017-12-21T06:34:31.039Z,100024.00
2017-12-21T06:36:59.408Z,100028.50
2017-12-21T06:39:27.721Z,100023.98
2017-12-21T06:41:56.641Z,100025.38
2017-12-21T06:44:25.009Z,100025.58
2017-12-21T06:46:53.332Z,100022.31
2017-12-21T06:49:21.836Z,100020.51
2017-12-21T06:51:51.349Z,100020.66
2017-12-21T06:54:19.684Z,100021.45
2017-12-21T06:56:48.020Z,100015.46
2017-12-21T06:59:17.068Z,100014.23
2017-12-21T07:01:45.957Z,100011.94
2017-12-21T07:04:14.277Z,100003.45
2017-12-21T07:06:42.636Z,100006.44
2017-12-21T07:09:11.031Z,100004.40
2017-12-21T07:11:39.932Z,100010.36
2017-12-21T07:14:08.832Z,100013.86
2017-12-21T07:16:38.213Z,100018.91
2017-12-21T07:19:06.640Z,100018.45
2017-12-21T07:21:35.464Z,100019.19
2017-12-21T07:24:04.521Z,100016.95
2017-12-21T07:26:32.848Z,100016.30
2017-12-21T07:29:01.774Z,100019.19
2017-12-21T07:31:30.349Z,100021.33
2017-12-21T07:33:59.268Z,100028.39
2017-12-21T07:36:27.676Z,100025.16
2017-12-21T07:38:56.598Z,100023.55
2017-12-21T07:41:25.017Z,100024.15
2017-12-21T07:43:54.881Z,100024.27
2017-12-21T07:46:23.200Z,100022.66
2017-12-21T07:48:52.870Z,100028.80
2017-12-21T07:51:21.248Z,100030.37
2017-12-21T07:53:49.620Z,100028.81
2017-12-21T07:56:18.957Z,100032.03
2017-12-21T07:58:47.280Z,100028.53
2017-12-21T08:01:15.668Z,100029.22
2017-12-21T08:03:43.996Z,100030.53
2017-12-21T08:06:12.957Z,100023.47
2017-12-21T08:08:41.341Z,100016.16
2017-12-21T08:11:09.924Z,100028.16
2017-12-21T08:13:38.244Z,100021.92
2017-12-21T08:16:06.820Z,100016.45
2017-12-21T08:18:35.953Z,100024.39
2017-12-21T08:21:04.365Z,100023.86
2017-12-21T08:23:33.739Z,100021.45
2017-12-21T08:26:02.268Z,100024.27
2017-12-21T08:28:30.588Z,100018.92
2017-12-21T08:30:58.954Z,100021.03
2017-12-21T08:33:27.276Z,100022.39
2017-12-21T08:35:56.314Z,100022.55
2017-12-21T08:38:25.301Z,100029.67
2017-12-21T08:40:54.385Z,100029.08
2017-12-21T08:43:23.318Z,100031.74
2017-12-21T08:45:51.792Z,100039.88
2017-12-21T08:48:20.193Z,100042.08
2017-12-21T08:50:48.972Z,100040.22
2017-12-21T08:53:17.440Z,100046.23
2017-12-21T08:55:45.894Z,100044.63
2017-12-21T08:58:14.955Z,100054.81
2017-12-21T09:00:44.129Z,100061.68
2017-12-21T09:03:12.447Z,100059.94
2017-12-21T09:05:42.004Z,100062.72
2017-12-21T09:08:11.114Z,100068.73
2017-12-21T09:10:40.484Z,100068.87
2017-12-21T09:13:09.098Z,100069.66
2017-12-21T09:15:37.811Z,100075.01
2017-12-21T09:18:07.606Z,100074.55
2017-12-21T09:20:36.514Z,100074.06
2017-12-21T09:23:05.148Z,100076.84
2017-12-21T09:25:35.069Z,100077.95
2017-12-21T09:28:04.667Z,100077.19
2017-12-21T09:30:34.021Z,100079.91
2017-12-21T09:33:03.718Z,100080.06
2017-12-21T09:35:32.420Z,100073.78
2017-12-21T09:38:01.905Z,100073.00
2017-12-21T09:40:30.776Z,100077.66
2017-12-21T09:42:59.666Z,100065.96
2017-12-21T09:45:28.448Z,100071.70
2017-12-21T09:47:57.449Z,100066.90
2017-12-21T09:50:26.705Z,100055.59
2017-12-21T09:52:55.858Z,100054.47
2017-12-21T09:55:25.722Z,100054.72
2017-12-21T09:57:54.431Z,100056.76
2017-12-21T10:00:23.998Z,100054.07
2017-12-21T10:02:54.853Z,100055.37
2017-12-21T10:05:25.459Z,100038.48
2017-12-21T10:07:54.940Z,100035.64
2017-12-21T10:10:24.643Z,100036.61
2017-12-21T10:12:53.398Z,100040.37
2017-12-21T10:15:22.125Z,100039.81
2017-12-21T10:17:52.001Z,100036.28
2017-12-21T10:20:21.998Z,100034.37
2017-12-21T10:22:51.438Z,100031.92
2017-12-21T10:25:20.858Z,100029.19
2017-12-21T10:27:49.949Z,100028.66
2017-12-21T10:30:19.002Z,100019.94
2017-12-21T10:32:48.617Z,100022.63
2017-12-21T10:35:17.434Z,100015.42
2017-12-21T10:37:48.045Z,100012.72
2017-12-21T10:40:18.015Z,100017.35
2017-12-21T10:42:46.858Z,100017.92
2017-12-21T10:45:15.538Z,100016.55
2017-12-21T10:47:45.170Z,100008.08
2017-12-21T10:50:13.994Z,100017.09
2017-12-21T10:52:43.390Z,100012.81
2017-12-21T10:55:13.324Z,100009.64
2017-12-21T10:57:42.030Z,100017.55
2017-12-21T11:00:10.711Z,100011.95
2017-12-21T11:02:39.453Z,100010.00
2017-12-21T11:05:08.897Z,100006.45
2017-12-21T11:07:38.794Z,100004.72
2017-12-21T11:10:07.653Z,100006.23
2017-12-21T11:12:40.056Z,100009.85
2017-12-21T11:15:09.396Z,100009.15
2017-12-21T11:17:40.073Z,100004.20
2017-12-21T11:20:10.089Z,100002.03
2017-12-21T11:22:40.000Z,100002.98
2017-12-21T11:25:09.829Z,99996.19
2017-12-21T11:27:39.877Z,99987.42
2017-12-21T11:30:09.796Z,99983.30
2017-12-21T11:32:45.273Z,99978.27
2017-12-21T11:35:14.442Z,99981.44
2017-12-21T11:37:43.433Z,99982.16
2017-12-21T11:40:13.151Z,99977.21
2017-12-21T11:42:42.592Z,99978.80
2017-12-21T11:45:11.244Z,99975.33
2017-12-21T11:47:40.047Z,99978.94
2017-12-21T11:50:08.811Z,99968.35
2017-12-21T11:52:38.874Z,99967.72
2017-12-21T11:55:08.780Z,99969.68
2017-12-21T11:57:37.908Z,99965.41
2017-12-21T12:00:06.714Z,99963.25
2017-12-21T12:02:35.288Z,99964.09
2017-12-21T12:05:04.260Z,99963.22
2017-12-21T12:07:34.374Z,99958.72
2017-12-21T12:10:04.224Z,99956.59
2017-12-21T12:12:34.242Z,99955.48
2017-12-21T12:15:03.647Z,99950.97
2017-12-21T12:17:33.946Z,99952.91
2017-12-21T12:20:03.942Z,99940.84
2017-12-21T12:22:33.399Z,99935.36
2017-12-21T12:25:02.052Z,99936.69
2017-12-21T12:27:31.202Z,99932.38
2017-12-21T12:30:01.062Z,99920.81
2017-12-21T12:32:30.293Z,99924.47
2017-12-21T12:34:58.939Z,99924.73
2017-12-21T12:37:28.370Z,99917.73
2017-12-21T12:39:57.116Z,99917.69
2017-12-21T12:42:25.757Z,99923.66
2017-12-21T12:44:54.583Z,99915.03
2017-12-21T12:47:23.480Z,99909.92
2017-12-21T12:49:52.173Z,99905.64
2017-12-21T12:52:21.764Z,99911.14
2017-12-21T12:54:50.360Z,99905.34
2017-12-21T12:57:19.469Z,99906.34
2017-12-21T12:59:49.365Z,99899.19
2017-12-21T13:02:18.439Z,99899.84
2017-12-21T13:04:47.097Z,99898.55
2017-12-21T13:07:15.912Z,99902.73
2017-12-21T13:09:45.839Z,99900.17
2017-12-21T13:12:14.802Z,99904.80
2017-12-21T13:14:43.842Z,99902.08
2017-12-21T13:17:12.919Z,99905.07
2017-12-21T13:19:42.248Z,99902.73
2017-12-21T13:22:10.988Z,99911.23
2017-12-21T13:24:40.828Z,99910.10
2017-12-21T13:27:11.069Z,99918.48
2017-12-21T13:29:40.813Z,99917.69
2017-12-21T13:32:11.863Z,99911.19
2017-12-21T13:34:41.783Z,99912.58
2017-12-21T13:37:11.468Z,99908.66
2017-12-21T13:39:41.533Z,99905.62
2017-12-21T13:42:10.554Z,99913.09
2017-12-21T13:44:39.669Z,99913.50
2017-12-21T13:47:08.441Z,99906.94
2017-12-21T13:49:37.968Z,99905.70
2017-12-21T13:52:07.714Z,99899.27
2017-12-21T13:54:36.422Z,99895.41
2017-12-21T13:57:05.986Z,99900.59
2017-12-21T13:59:36.837Z,99898.64
2017-12-21T14:02:05.733Z,99899.84
2017-12-21T14:04:34.088Z,99900.63
2017-12-21T14:07:02.772Z,99907.09
2017-12-21T14:09:31.572Z,99912.14
2017-12-21T14:12:00.336Z,99916.75
2017-12-21T14:14:29.260Z,99911.81
2017-12-21T14:16:57.583Z,99909.72
2017-12-21T14:19:25.901Z,99904.66
2017-12-21T14:21:54.804Z,99898.08
2017-12-21T14:24:24.009Z,99900.54
2017-12-21T14:26:52.319Z,99897.61
2017-12-21T14:29:20.760Z,99901.27
2017-12-21T14:31:49.473Z,99893.58
2017-12-21T14:34:17.800Z,99898.58
2017-12-21T14:36:46.672Z,99904.64
2017-12-21T14:39:15.296Z,99902.20
2017-12-21T14:41:43.712Z,99906.94
2017-12-21T14:44:12.154Z,99902.10
2017-12-21T14:46:40.455Z,99905.70
2017-12-21T14:49:10.036Z,99904.23
2017-12-21T14:51:38.407Z,99910.73
2017-12-21T14:54:08.138Z,99910.09
2017-12-21T14:56:36.549Z,99910.96
2017-12-21T14:59:05.440Z,99911.87
2017-12-21T15:01:34.547Z,99913.06
2017-12-21T15:04:03.900Z,99915.73
2017-12-21T15:06:32.805Z,99914.70
2017-12-21T15:09:01.196Z,99920.45
2017-12-21T15:11:30.235Z,99920.26
2017-12-21T15:13:58.592Z,99923.02
2017-12-21T15:16:26.905Z,99926.33
2017-12-21T15:18:55.356Z,99927.66
2017-12-21T15:21:23.708Z,99928.69
2017-12-21T15:23:52.088Z,99932.92
2017-12-21T15:26:20.424Z,99930.92
2017-12-21T15:28:48.761Z,99935.08
2017-12-21T15:31:17.166Z,99928.84
2017-12-21T15:33:45.532Z,99931.20
2017-12-21T15:36:13.840Z,99933.55
2017-12-21T15:38:42.268Z,99937.31
2017-12-21T15:41:10.648Z,99929.98
2017-12-21T15:43:39.032Z,99934.08
2017-12-21T15:46:07.493Z,99925.63
2017-12-21T15:48:35.776Z,99929.09
2017-12-21T15:51:04.104Z,99927.98
2017-12-21T15:53:32.560Z,99932.25
2017-12-21T15:56:00.884Z,99937.72
2017-12-21T15:58:29.206Z,99931.85
2017-12-21T16:00:57.583Z,99941.05
2017-12-21T16:03:25.971Z,99941.38
2017-12-21T16:05:54.292Z,99946.21
2017-12-21T16:08:22.600Z,99952.04
2017-12-21T16:10:51.244Z,99957.04
2017-12-21T16:13:19.568Z,99961.06
2017-12-21T16:15:48.144Z,99965.63
2017-12-21T16:18:16.548Z,99964.94
2017-12-21T16:20:44.900Z,99965.86
2017-12-21T16:23:13.221Z,99966.66
2017-12-21T16:25:41.612Z,99972.00
2017-12-21T16:28:09.966Z,99971.83
2017-12-21T16:30:38.285Z,99970.46
2017-12-21T16:33:06.610Z,99979.73
2017-12-21T16:35:35.271Z,99983.39
2017-12-21T16:38:04.424Z,99986.05
2017-12-21T16:40:32.745Z,99986.63
2017-12-21T16:43:01.165Z,99988.69
2017-12-21T16:45:29.856Z,99985.76
2017-12-21T16:47:58.164Z,99993.99
2017-12-21T16:50:26.553Z,99994.52
2017-12-21T16:52:55.693Z,100001.59
2017-12-21T16:55:24.060Z,100003.81
2017-12-21T16:57:52.476Z,100005.89
2017-12-21T17:00:21.600Z,100009.94
2017-12-21T17:02:50.385Z,100007.74
2017-12-21T17:05:18.969Z,100003.48
2017-12-21T17:07:48.065Z,100003.16
2017-12-21T17:10:17.157Z,99998.35
2017-12-21T17:12:46.117Z,100000.05
2017-12-21T17:15:16.176Z,100001.09
2017-12-21T17:17:44.840Z,99999.13
2017-12-21T17:20:13.484Z,99997.39
2017-12-21T17:22:41.918Z,100003.09
2017-12-21T17:25:11.640Z,100008.48
2017-12-21T17:27:40.548Z,100018.58
2017-12-21T17:30:10.757Z,100010.36
2017-12-21T17:32:39.893Z,100013.52
2017-12-21T17:35:08.637Z,100019.05
2017-12-21T17:37:37.078Z,100013.05
2017-12-21T17:40:06.504Z,100019.72
2017-12-21T17:42:35.233Z,100022.02
2017-12-21T17:45:03.665Z,100025.66
2017-12-21T17:47:32.040Z,100020.35
2017-12-21T17:50:00.359Z,100027.05
2017-12-21T17:52:29.794Z,100031.65
2017-12-21T17:54:58.179Z,100035.20
2017-12-21T17:57:26.512Z,100043.83
2017-12-21T17:59:54.896Z,100038.42
2017-12-21T18:02:23.968Z,100038.92
2017-12-21T18:04:52.301Z,100036.08
2017-12-21T18:07:20.681Z,100049.38
2017-12-21T18:09:49.014Z,100042.74
2017-12-21T18:12:17.417Z,100043.51
2017-12-21T18:14:46.142Z,100039.88
2017-12-21T18:17:14.538Z,100032.67
2017-12-21T18:19:43.666Z,100028.70
2017-12-21T18:22:12.165Z,100029.27
2017-12-21T18:24:40.549Z,100025.78
2017-12-21T18:27:09.109Z,100028.95
2017-12-21T18:29:37.443Z,100024.81
2017-12-21T18:32:06.449Z,100026.38
2017-12-21T18:34:34.823Z,100024.19
2017-12-21T18:37:03.956Z,100032.45
2017-12-21T18:39:33.178Z,100027.28
2017-12-21T18:42:01.514Z,100028.27
2017-12-21T18:44:29.890Z,100029.07
2017-12-21T18:46:58.274Z,100032.97
2017-12-21T18:49:28.749Z,100043.38
2017-12-21T18:51:57.082Z,100037.16
2017-12-21T18:54:32.286Z,100054.82
2017-12-21T18:57:00.636Z,100057.41
2017-12-21T18:59:29.107Z,100058.22
2017-12-21T19:01:58.316Z,100054.86
2017-12-21T19:04:27.122Z,100055.38
2017-12-21T19:06:55.485Z,100055.14
2017-12-21T19:09:23.962Z,100056.63
2017-12-21T19:11:52.983Z,100059.32
2017-12-21T19:14:21.379Z,100064.91
2017-12-21T19:16:50.268Z,100068.98
2017-12-21T19:19:19.496Z,100072.53
2017-12-21T19:21:47.841Z,100073.26
2017-12-21T19:24:16.784Z,100077.42
2017-12-21T19:26:45.778Z,100081.55
2017-12-21T19:29:14.271Z,100078.40
2017-12-21T19:31:43.239Z,100078.45
2017-12-21T19:34:14.011Z,100072.68
2017-12-21T19:36:43.191Z,100074.06
2017-12-21T19:39:11.834Z,100078.78
2017-12-21T19:41:40.561Z,100077.47
2017-12-21T19:44:09.108Z,100078.06
2017-12-21T19:46:37.539Z,100078.42
2017-12-21T19:49:06.056Z,100070.53
2017-12-21T19:51:35.172Z,100071.64
2017-12-21T19:54:04.248Z,100078.67
2017-12-21T19:56:32.576Z,100076.66
2017-12-21T19:59:01.597Z,100080.13
2017-12-21T20:01:30.812Z,100077.01
2017-12-21T20:03:59.144Z,100071.53
2017-12-21T20:06:27.562Z,100073.72
2017-12-21T20:08:56.640Z,100079.45
2017-12-21T20:11:25.861Z,100064.66
2017-12-21T20:13:54.835Z,100064.83
2017-12-21T20:16:24.010Z,100061.26
2017-12-21T20:18:52.975Z,100061.20
2017-12-21T20:21:21.970Z,100057.32
2017-12-21T20:23:50.320Z,100060.17
2017-12-21T20:26:19.467Z,100061.02
2017-12-21T20:28:48.510Z,100063.56
2017-12-21T20:31:17.797Z,100058.05
2017-12-21T20:33:46.317Z,100059.08
2017-12-21T20:36:16.217Z,100055.22
2017-12-21T20:38:45.068Z,100055.73
2017-12-21T20:41:14.064Z,100057.16
2017-12-21T20:43:43.106Z,100067.84
2017-12-21T20:46:12.343Z,100065.39
2017-12-21T20:48:41.465Z,100066.47
2017-12-21T20:51:10.562Z,100063.72
2017-12-21T20:53:39.652Z,100070.15
2017-12-21T20:56:08.439Z,100070.22
2017-12-21T20:58:36.851Z,100077.12
2017-12-21T21:01:06.327Z,100071.80
2017-12-21T21:03:35.161Z,100068.14
2017-12-21T21:06:04.145Z,100064.98
2017-12-21T21:08:33.985Z,100067.55
2017-12-21T21:11:02.384Z,100066.16
2017-12-21T21:13:31.823Z,100065.28
2017-12-21T21:16:00.193Z,100063.66
2017-12-21T21:18:29.164Z,100068.78
2017-12-21T21:20:57.980Z,100068.44
2017-12-21T21:23:27.196Z,100063.79
2017-12-21T21:25:56.296Z,100068.59
2017-12-21T21:28:24.917Z,100075.25
2017-12-21T21:30:54.569Z,100071.85
2017-12-21T21:33:23.493Z,100081.28
2017-12-21T21:35:51.875Z,100082.75
2017-12-21T21:38:20.925Z,100092.87
2017-12-21T21:40:50.108Z,100091.47
2017-12-21T21:43:19.195Z,100091.61
2017-12-21T21:45:48.239Z,100086.59
2017-12-21T21:48:18.019Z,100083.66
2017-12-21T21:50:46.441Z,100082.39
2017-12-21T21:53:14.897Z,100090.23
2017-12-21T21:55:44.792Z,100087.42
2017-12-21T21:58:13.170Z,100091.63
2017-12-21T22:00:42.046Z,100090.98
2017-12-21T22:03:10.442Z,100092.58
2017-12-21T22:05:38.816Z,100092.90
2017-12-21T22:08:07.588Z,100100.89
2017-12-21T22:10:36.136Z,100107.80
2017-12-21T22:13:05.288Z,100101.22
2017-12-21T22:15:33.739Z,100105.59
2017-12-21T22:18:04.028Z,100107.44
2017-12-21T22:20:32.480Z,100110.88
2017-12-21T22:23:01.574Z,100105.02
2017-12-21T22:25:29.904Z,100101.11
2017-12-21T22:27:58.476Z,100094.27
2017-12-21T22:30:27.307Z,100094.94
2017-12-21T22:32:56.352Z,100097.67
2017-12-21T22:35:25.172Z,100097.69
2017-12-21T22:37:54.511Z,100090.44
2017-12-21T22:40:23.082Z,100081.27
2017-12-21T22:42:51.880Z,100081.08
2017-12-21T22:45:20.414Z,100089.66
2017-12-21T22:47:55.166Z,100074.41
2017-12-21T22:50:23.959Z,100075.82
2017-12-21T22:52:52.352Z,100070.77
2017-12-21T22:55:20.726Z,100061.81
2017-12-21T22:57:49.864Z,100059.22
2017-12-21T23:00:26.249Z,100052.53
2017-12-21T23:02:55.321Z,100049.26
2017-12-21T23:05:24.426Z,100046.20
2017-12-21T23:07:53.685Z,100045.77
2017-12-21T23:10:22.500Z,100046.56
2017-12-21T23:12:51.093Z,100042.61
2017-12-21T23:15:19.962Z,100047.14
2017-12-21T23:17:48.387Z,100043.23
2017-12-21T23:20:16.824Z,100043.09
2017-12-21T23:22:45.574Z,100038.44
2017-12-21T23:25:14.517Z,100037.56
2017-12-21T23:27:42.964Z,100037.30
2017-12-21T23:30:11.297Z,100034.93
2017-12-21T23:32:40.541Z,100034.39
2017-12-21T23:35:08.977Z,100026.81
2017-12-21T23:37:37.714Z,100031.48
2017-12-21T23:40:06.233Z,100029.56
2017-12-21T23:42:35.048Z,100030.58
2017-12-21T23:45:03.382Z,100029.74
2017-12-21T23:47:31.865Z,100029.41
2017-12-21T23:50:00.779Z,100032.34
2017-12-21T23:52:29.842Z,100025.00
2017-12-21T23:54:58.973Z,100026.17
2017-12-21T23:57:27.376Z,100023.27
2017-12-21T23:59:56.294Z,100024.83
